createdAt,value
2023-03-28T00:01:06.592Z,43.95
2023-03-28T00:03:36.480Z,44.46
2023-03-28T00:06:09.567Z,43.98
2023-03-28T00:08:39.462Z,44.44
2023-03-28T00:11:08.903Z,43.95
2023-03-28T00:13:36.427Z,43.92
2023-03-28T00:16:05.810Z,43.96
2023-03-28T00:18:37.517Z,43.91
2023-03-28T00:21:04.237Z,43.68
2023-03-28T00:23:31.132Z,43.81
2023-03-28T00:25:57.801Z,44.54
2023-03-28T00:28:24.472Z,43.66
2023-03-28T00:30:51.053Z,43.93
2023-03-28T00:33:18.444Z,43.91
2023-03-28T00:35:44.976Z,44.08
2023-03-28T00:38:13.862Z,43.92
2023-03-28T00:40:40.553Z,44.04
2023-03-28T00:43:07.342Z,43.82
2023-03-28T00:45:33.968Z,43.55
2023-03-28T00:48:05.300Z,43.26
2023-03-28T00:50:38.743Z,43.34
2023-03-28T00:53:16.756Z,43.71
2023-03-28T00:55:53.318Z,44.01
2023-03-28T00:58:26.777Z,44.03
2023-03-28T01:00:57.325Z,44.16
2023-03-28T01:03:27.933Z,43.97
2023-03-28T01:05:55.409Z,44.59
2023-03-28T01:08:30.466Z,43.57
2023-03-28T01:10:57.085Z,44.12
2023-03-28T01:13:31.352Z,44.40
2023-03-28T01:15:59.567Z,44.48
2023-03-28T01:18:26.506Z,44.08
2023-03-28T01:21:05.204Z,44.26
2023-03-28T01:23:52.804Z,43.94
2023-03-28T01:26:49.116Z,43.91
2023-03-28T01:29:45.784Z,44.16
2023-03-28T01:32:46.717Z,44.31
2023-03-28T01:35:37.066Z,43.70
2023-03-28T01:38:35.839Z,43.47
2023-03-28T01:41:20.526Z,43.79
2023-03-28T01:44:06.164Z,44.02
2023-03-28T01:46:39.004Z,43.79
2023-03-28T01:49:21.895Z,43.80
2023-03-28T01:51:57.343Z,44.72
2023-03-28T01:54:30.124Z,44.69
2023-03-28T01:57:10.488Z,46.39
2023-03-28T01:59:48.434Z,46.44
2023-03-28T02:02:45.862Z,46.37
2023-03-28T02:05:34.507Z,45.98
2023-03-28T02:08:04.451Z,45.92
2023-03-28T02:10:41.296Z,47.41
2023-03-28T02:13:34.063Z,46.51
2023-03-28T02:16:23.057Z,45.77
2023-03-28T02:19:09.622Z,45.48
2023-03-28T02:22:11.709Z,47.18
2023-03-28T02:24:57.760Z,46.05
2023-03-28T02:27:36.820Z,47.18
2023-03-28T02:30:21.608Z,47.32
2023-03-28T02:32:50.543Z,46.91
2023-03-28T02:35:24.917Z,46.52
2023-03-28T02:38:11.322Z,46.89
2023-03-28T02:40:54.189Z,47.04
2023-03-28T02:43:31.165Z,45.88
2023-03-28T02:46:14.741Z,46.27
2023-03-28T02:48:48.512Z,45.88
2023-03-28T02:51:46.325Z,46.13
2023-03-28T02:54:41.850Z,46.05
2023-03-28T02:57:33.531Z,46.32
2023-03-28T03:00:12.000Z,46.32
2023-03-28T03:02:40.491Z,45.69
2023-03-28T03:05:07.516Z,46.15
2023-03-28T03:07:34.043Z,46.52
2023-03-28T03:10:01.252Z,46.44
2023-03-28T03:12:30.371Z,46.56
2023-03-28T03:15:01.140Z,47.01
2023-03-28T03:17:47.857Z,47.20
2023-03-28T03:20:15.790Z,46.67
2023-03-28T03:22:42.340Z,47.47
2023-03-28T03:25:09.457Z,47.26
2023-03-28T03:27:46.873Z,46.50
2023-03-28T03:30:13.925Z,47.38
2023-03-28T03:33:00.860Z,46.70
2023-03-28T03:35:33.446Z,46.92
2023-03-28T03:38:04.243Z,47.46
2023-03-28T03:40:30.876Z,47.84
2023-03-28T03:42:57.936Z,47.61
2023-03-28T03:45:24.655Z,47.83
2023-03-28T03:47:51.312Z,47.17
2023-03-28T03:50:17.922Z,47.57
2023-03-28T03:52:44.470Z,47.02
2023-03-28T03:55:11.590Z,47.35
2023-03-28T03:57:40.166Z,47.28
2023-03-28T04:00:11.815Z,47.44
2023-03-28T04:02:48.243Z,47.86
2023-03-28T04:05:21.094Z,47.27
2023-03-28T04:08:01.604Z,46.76
2023-03-28T04:10:33.411Z,47.43
2023-03-28T04:13:00.249Z,46.80
2023-03-28T04:15:26.954Z,46.63
2023-03-28T04:17:59.746Z,46.81
2023-03-28T04:20:29.683Z,46.79
2023-03-28T04:23:05.696Z,46.60
2023-03-28T04:25:32.966Z,46.27
2023-03-28T04:28:04.650Z,46.34
2023-03-28T04:30:38.158Z,46.63
2023-03-28T04:33:28.445Z,45.61
2023-03-28T04:36:02.377Z,46.31
2023-03-28T04:38:36.064Z,46.05
2023-03-28T04:41:20.847Z,46.89
2023-03-28T04:44:09.888Z,46.40
2023-03-28T04:46:43.587Z,46.88
2023-03-28T04:49:13.148Z,46.17
2023-03-28T04:51:39.857Z,45.96
2023-03-28T04:54:06.705Z,46.03
2023-03-28T04:57:02.540Z,45.40
2023-03-28T04:59:37.868Z,45.54
2023-03-28T05:02:04.465Z,45.59
2023-03-28T05:04:42.427Z,45.46
2023-03-28T05:07:09.414Z,46.02
2023-03-28T05:09:36.240Z,45.47
2023-03-28T05:12:03.260Z,45.27
2023-03-28T05:14:32.886Z,45.76
2023-03-28T05:17:11.629Z,45.83
2023-03-28T05:19:52.026Z,45.24
2023-03-28T05:22:21.810Z,44.99
2023-03-28T05:24:48.398Z,44.50
2023-03-28T05:27:20.156Z,45.09
2023-03-28T05:29:47.578Z,44.96
2023-03-28T05:32:14.608Z,45.66
2023-03-28T05:34:41.828Z,45.53
2023-03-28T05:37:09.390Z,45.39
2023-03-28T05:40:02.483Z,45.12
2023-03-28T05:42:31.205Z,45.90
2023-03-28T05:44:57.760Z,44.94
2023-03-28T05:47:38.353Z,44.58
2023-03-28T05:50:05.432Z,44.16
2023-03-28T05:52:31.919Z,44.21
2023-03-28T05:54:58.559Z,43.61
2023-03-28T05:57:25.281Z,42.96
2023-03-28T05:59:53.776Z,43.56
2023-03-28T06:02:23.023Z,44.25
2023-03-28T06:04:53.838Z,40.56
2023-03-28T06:07:31.517Z,37.34
2023-03-28T06:10:08.389Z,34.47
2023-03-28T06:12:36.624Z,32.94
2023-03-28T06:15:04.513Z,32.88
2023-03-28T06:17:35.470Z,31.95
2023-03-28T06:20:02.268Z,31.56
2023-03-28T06:22:29.839Z,30.55
2023-03-28T06:25:00.880Z,28.51
2023-03-28T06:27:31.914Z,27.00
2023-03-28T06:29:59.985Z,25.40
2023-03-28T06:32:28.421Z,24.09
2023-03-28T06:34:54.973Z,22.78
2023-03-28T06:37:23.537Z,21.72
2023-03-28T06:39:59.969Z,21.15
2023-03-28T06:42:27.171Z,21.67
2023-03-28T06:44:59.771Z,21.93
2023-03-28T06:47:39.305Z,21.38
2023-03-28T06:50:07.793Z,20.13
2023-03-28T06:52:44.180Z,19.56
2023-03-28T06:55:11.304Z,18.88
2023-03-28T06:57:37.998Z,18.43
2023-03-28T07:00:34.507Z,17.92
2023-03-28T07:03:23.912Z,17.46
2023-03-28T07:05:50.710Z,16.94
2023-03-28T07:08:17.406Z,17.50
2023-03-28T07:10:43.925Z,17.53
2023-03-28T07:13:12.251Z,17.15
2023-03-28T07:15:48.487Z,17.33
2023-03-28T07:18:15.461Z,16.56
2023-03-28T07:20:43.050Z,16.69
2023-03-28T07:23:11.974Z,16.51
2023-03-28T07:25:39.113Z,15.95
2023-03-28T07:28:05.862Z,15.86
2023-03-28T07:30:33.552Z,15.60
2023-03-28T07:33:12.463Z,18.27
2023-03-28T07:35:43.827Z,18.66
2023-03-28T07:38:13.036Z,17.69
2023-03-28T07:40:48.985Z,16.99
2023-03-28T07:43:15.645Z,15.73
2023-03-28T07:45:42.182Z,15.58
2023-03-28T07:48:08.758Z,15.75
2023-03-28T07:50:36.557Z,15.64
2023-03-28T07:53:03.094Z,16.45
2023-03-28T07:55:44.889Z,16.63
2023-03-28T07:58:21.284Z,16.88
2023-03-28T08:00:48.037Z,16.54
2023-03-28T08:03:33.789Z,15.68
2023-03-28T08:06:02.786Z,15.28
2023-03-28T08:08:29.952Z,15.26
2023-03-28T08:11:28.940Z,15.52
2023-03-28T08:13:55.581Z,15.26
2023-03-28T08:16:24.839Z,15.10
2023-03-28T08:19:03.534Z,14.93
2023-03-28T08:21:42.688Z,14.42
2023-03-28T08:24:12.837Z,14.34
2023-03-28T08:26:54.131Z,14.35
2023-03-28T08:29:20.744Z,13.64
2023-03-28T08:31:48.056Z,14.37
2023-03-28T08:34:15.704Z,14.66
2023-03-28T08:36:43.296Z,14.18
2023-03-28T08:39:21.933Z,13.82
2023-03-28T08:42:10.553Z,13.94
2023-03-28T08:45:01.793Z,14.00
2023-03-28T08:47:33.550Z,14.73
2023-03-28T08:50:09.728Z,15.51
2023-03-28T08:52:38.541Z,16.31
2023-03-28T08:55:11.354Z,15.91
2023-03-28T08:57:38.935Z,15.34
2023-03-28T09:00:09.887Z,15.75
2023-03-28T09:02:38.443Z,16.19
2023-03-28T09:05:21.997Z,17.04
2023-03-28T09:08:19.262Z,17.24
2023-03-28T09:11:10.201Z,16.27
2023-03-28T09:13:57.709Z,15.44
2023-03-28T09:16:55.491Z,14.87
2023-03-28T09:19:46.886Z,14.83
2023-03-28T09:22:40.202Z,16.08
2023-03-28T09:25:32.598Z,17.18
2023-03-28T09:28:12.730Z,18.05
2023-03-28T09:30:43.821Z,17.61
2023-03-28T09:33:18.430Z,16.84
2023-03-28T09:35:47.224Z,17.79
2023-03-28T09:38:24.879Z,18.01
2023-03-28T09:40:54.637Z,17.30
2023-03-28T09:43:53.999Z,17.89
2023-03-28T09:46:53.795Z,17.79
2023-03-28T09:49:24.854Z,17.52
2023-03-28T09:51:58.575Z,17.96
2023-03-28T09:54:31.212Z,18.69
2023-03-28T09:57:03.432Z,18.90
2023-03-28T09:59:57.585Z,18.54
2023-03-28T10:02:30.442Z,19.76
2023-03-28T10:05:01.181Z,19.76
2023-03-28T10:07:45.026Z,19.54
2023-03-28T10:10:30.786Z,19.86
2023-03-28T10:13:04.838Z,19.46
2023-03-28T10:15:40.119Z,19.31
2023-03-28T10:18:22.428Z,19.73
2023-03-28T10:21:11.781Z,19.49
2023-03-28T10:23:41.487Z,20.01
2023-03-28T10:26:09.786Z,19.86
2023-03-28T10:28:37.440Z,19.71
2023-03-28T10:31:04.832Z,19.68
2023-03-28T10:33:37.452Z,20.01
2023-03-28T10:36:32.928Z,18.50
2023-03-28T10:39:23.778Z,18.59
2023-03-28T10:42:11.032Z,19.15
2023-03-28T10:45:00.197Z,18.46
2023-03-28T10:47:29.491Z,19.51
2023-03-28T10:50:21.430Z,18.45
2023-03-28T10:53:03.196Z,18.03
2023-03-28T10:55:58.767Z,19.25
2023-03-28T10:59:06.518Z,18.12
2023-03-28T11:01:43.835Z,17.83
2023-03-28T11:04:16.849Z,18.41
2023-03-28T11:06:51.610Z,18.01
2023-03-28T11:09:33.851Z,18.60
2023-03-28T11:12:40.936Z,18.38
2023-03-28T11:15:36.822Z,18.92
2023-03-28T11:18:45.796Z,17.93
2023-03-28T11:21:49.621Z,17.54
2023-03-28T11:24:27.861Z,17.64
2023-03-28T11:27:25.831Z,18.34
2023-03-28T11:30:06.684Z,17.62
2023-03-28T11:32:44.198Z,18.09
2023-03-28T11:38:04.521Z,18.95
2023-03-28T11:40:45.906Z,18.93
2023-03-28T11:43:28.246Z,18.45
2023-03-28T11:45:59.902Z,18.96
2023-03-28T11:48:32.264Z,18.58
2023-03-28T11:51:14.747Z,17.12
2023-03-28T11:54:16.801Z,17.91
2023-03-28T11:57:01.837Z,19.19
2023-03-28T11:59:40.464Z,18.61
2023-03-28T12:02:30.248Z,17.46
2023-03-28T12:05:16.607Z,18.29
2023-03-28T12:07:50.496Z,18.83
2023-03-28T12:10:36.403Z,18.75
2023-03-28T12:13:15.219Z,17.73
2023-03-28T12:15:58.275Z,18.18
2023-03-28T12:18:34.417Z,18.98
2023-03-28T12:21:11.710Z,17.83
2023-03-28T12:23:55.788Z,17.25
2023-03-28T12:27:07.987Z,16.69
2023-03-28T12:29:44.129Z,18.20
2023-03-28T12:32:44.480Z,18.37
2023-03-28T12:35:22.818Z,18.63
2023-03-28T12:38:22.723Z,17.22
2023-03-28T12:41:05.939Z,16.29
2023-03-28T12:43:49.691Z,17.01
2023-03-28T12:46:25.985Z,16.71
2023-03-28T12:49:02.467Z,16.63
2023-03-28T12:51:38.794Z,17.05
2023-03-28T12:54:15.689Z,17.56
2023-03-28T12:57:07.130Z,17.56
2023-03-28T12:59:40.063Z,17.00
2023-03-28T13:02:24.367Z,16.32
2023-03-28T13:05:13.429Z,16.46
2023-03-28T13:07:52.626Z,16.23
2023-03-28T13:10:29.732Z,17.14
2023-03-28T13:13:13.398Z,15.94
2023-03-28T13:16:03.097Z,16.73
2023-03-28T13:18:31.999Z,16.48
2023-03-28T13:21:00.410Z,15.81
2023-03-28T13:23:30.484Z,16.72
2023-03-28T13:25:59.122Z,14.82
2023-03-28T13:28:59.163Z,14.92
2023-03-28T13:31:26.505Z,15.05
2023-03-28T13:33:58.338Z,15.71
2023-03-28T13:36:27.622Z,15.55
2023-03-28T13:39:09.717Z,13.36
2023-03-28T13:41:55.395Z,14.34
2023-03-28T13:44:30.963Z,14.57
2023-03-28T13:46:57.574Z,14.10
2023-03-28T13:49:48.386Z,13.48
2023-03-28T13:52:23.405Z,12.98
2023-03-28T13:54:54.386Z,14.63
2023-03-28T13:57:27.380Z,14.57
2023-03-28T14:00:00.917Z,14.39
2023-03-28T14:02:43.946Z,13.79
2023-03-28T14:05:15.544Z,14.56
2023-03-28T14:07:42.075Z,14.74
2023-03-28T14:10:35.970Z,14.33
2023-03-28T14:13:07.892Z,15.00
2023-03-28T14:15:36.429Z,15.79
2023-03-28T14:18:03.698Z,16.04
2023-03-28T14:20:32.683Z,15.04
2023-03-28T14:23:01.293Z,15.50
2023-03-28T14:25:28.661Z,14.89
2023-03-28T14:27:56.392Z,14.35
2023-03-28T14:30:32.074Z,14.52
2023-03-28T14:33:01.313Z,15.18
2023-03-28T14:35:35.395Z,14.57
2023-03-28T14:38:06.702Z,14.35
2023-03-28T14:40:36.435Z,14.59
2023-03-28T14:43:06.262Z,14.13
2023-03-28T14:46:02.886Z,14.70
2023-03-28T14:48:29.775Z,15.30
2023-03-28T14:50:56.950Z,15.97
2023-03-28T14:53:25.384Z,16.24
2023-03-28T14:55:54.520Z,16.70
2023-03-28T14:58:24.528Z,17.41
2023-03-28T15:00:58.247Z,17.63
2023-03-28T15:03:33.939Z,18.27
2023-03-28T15:06:00.973Z,17.70
2023-03-28T15:08:34.626Z,18.54
2023-03-28T15:11:03.947Z,19.22
2023-03-28T15:13:33.854Z,20.03
2023-03-28T15:16:00.636Z,19.75
2023-03-28T15:18:33.602Z,19.48
2023-03-28T15:21:02.010Z,19.93
2023-03-28T15:23:35.076Z,19.72
2023-03-28T15:26:09.539Z,19.98
2023-03-28T15:28:36.117Z,19.99
2023-03-28T15:31:04.027Z,20.34
2023-03-28T15:33:34.278Z,20.00
2023-03-28T15:36:08.534Z,19.85
2023-03-28T15:38:40.467Z,20.75
2023-03-28T15:41:23.528Z,20.75
2023-03-28T15:43:52.674Z,20.62
2023-03-28T15:46:21.394Z,20.56
2023-03-28T15:48:48.902Z,20.66
2023-03-28T15:51:17.694Z,21.20
2023-03-28T15:53:48.411Z,20.86
2023-03-28T15:56:28.662Z,21.03
2023-03-28T15:59:00.398Z,21.54
2023-03-28T16:01:29.482Z,21.70
2023-03-28T16:04:24.746Z,21.73
2023-03-28T16:07:12.407Z,21.32
2023-03-28T16:09:43.019Z,21.63
2023-03-28T16:12:14.347Z,21.46
2023-03-28T16:14:46.749Z,22.11
2023-03-28T16:17:25.084Z,22.30
2023-03-28T16:20:02.319Z,22.19
2023-03-28T16:22:29.125Z,22.25
2023-03-28T16:24:55.645Z,22.35
2023-03-28T16:27:22.363Z,22.29
2023-03-28T16:29:49.142Z,22.14
2023-03-28T16:32:16.420Z,22.49
2023-03-28T16:34:43.441Z,22.98
2023-03-28T16:37:10.498Z,22.71
2023-03-28T16:39:41.422Z,22.42
2023-03-28T16:42:07.961Z,23.10
2023-03-28T16:44:34.934Z,22.93
2023-03-28T16:47:02.431Z,22.94
2023-03-28T16:49:29.258Z,22.93
2023-03-28T16:51:56.276Z,22.73
2023-03-28T16:54:23.482Z,23.04
2023-03-28T16:56:50.294Z,22.81
2023-03-28T16:59:16.831Z,22.97
2023-03-28T17:01:46.169Z,23.01
2023-03-28T17:04:12.893Z,23.83
2023-03-28T17:06:39.426Z,23.76
2023-03-28T17:09:06.771Z,23.51
2023-03-28T17:11:33.348Z,23.69
2023-03-28T17:13:59.976Z,23.60
2023-03-28T17:16:27.238Z,23.77
2023-03-28T17:18:53.842Z,23.46
2023-03-28T17:21:20.797Z,23.58
2023-03-28T17:23:49.021Z,23.78
2023-03-28T17:26:16.221Z,24.45
2023-03-28T17:28:43.477Z,23.99
2023-03-28T17:31:13.617Z,24.29
2023-03-28T17:33:40.670Z,24.45
2023-03-28T17:36:23.271Z,24.06
2023-03-28T17:38:51.345Z,24.86
2023-03-28T17:41:18.352Z,25.06
2023-03-28T17:43:44.922Z,25.15
2023-03-28T17:46:12.798Z,25.40
2023-03-28T17:48:40.185Z,25.38
2023-03-28T17:51:07.724Z,26.09
2023-03-28T17:53:34.354Z,25.62
2023-03-28T17:56:01.705Z,25.48
2023-03-28T17:58:28.640Z,25.93
2023-03-28T18:00:55.187Z,26.18
2023-03-28T18:03:22.570Z,26.71
2023-03-28T18:06:15.231Z,26.75
2023-03-28T18:08:44.601Z,26.97
2023-03-28T18:11:14.402Z,27.38
2023-03-28T18:13:41.463Z,27.20
2023-03-28T18:16:10.881Z,27.49
2023-03-28T18:18:38.360Z,27.70
2023-03-28T18:21:07.497Z,27.38
2023-03-28T18:23:34.882Z,27.74
2023-03-28T18:26:01.686Z,27.90
2023-03-28T18:28:28.407Z,27.84
2023-03-28T18:30:54.976Z,28.38
2023-03-28T18:33:22.123Z,28.25
2023-03-28T18:35:49.028Z,28.72
2023-03-28T18:38:15.907Z,28.76
2023-03-28T18:40:42.533Z,29.04
2023-03-28T18:43:09.527Z,28.99
2023-03-28T18:45:36.384Z,29.34
2023-03-28T18:48:03.514Z,29.04
2023-03-28T18:50:30.127Z,29.28
2023-03-28T18:52:57.419Z,29.31
2023-03-28T18:55:24.186Z,30.08
2023-03-28T18:57:50.700Z,29.76
2023-03-28T19:00:19.041Z,29.80
2023-03-28T19:02:46.861Z,30.26
2023-03-28T19:05:15.384Z,30.36
2023-03-28T19:07:42.926Z,30.48
2023-03-28T19:10:11.710Z,30.32
2023-03-28T19:12:38.305Z,30.76
2023-03-28T19:15:05.944Z,30.82
2023-03-28T19:17:36.380Z,31.76
2023-03-28T19:20:07.871Z,31.69
2023-03-28T19:22:35.156Z,31.78
2023-03-28T19:25:01.831Z,31.30
2023-03-28T19:27:28.343Z,31.75
2023-03-28T19:29:55.030Z,32.14
2023-03-28T19:32:21.545Z,32.08
2023-03-28T19:34:48.060Z,31.80
2023-03-28T19:37:14.571Z,32.06
2023-03-28T19:39:41.130Z,32.48
2023-03-28T19:42:07.597Z,31.91
2023-03-28T19:44:34.122Z,32.22
2023-03-28T19:47:00.795Z,32.75
2023-03-28T19:49:27.375Z,32.80
2023-03-28T19:51:54.484Z,32.08
2023-03-28T19:54:21.481Z,32.43
2023-03-28T19:56:48.669Z,32.77
2023-03-28T19:59:15.195Z,32.80
2023-03-28T20:01:41.823Z,33.20
2023-03-28T20:04:09.621Z,33.17
2023-03-28T20:06:36.662Z,33.51
2023-03-28T20:09:03.538Z,33.52
2023-03-28T20:11:30.106Z,33.24
2023-03-28T20:13:57.228Z,33.95
2023-03-28T20:16:23.799Z,33.83
2023-03-28T20:18:50.311Z,34.28
2023-03-28T20:21:16.858Z,34.16
2023-03-28T20:23:43.340Z,34.34
2023-03-28T20:26:18.673Z,34.06
2023-03-28T20:28:49.717Z,34.73
2023-03-28T20:31:17.641Z,34.96
2023-03-28T20:33:44.947Z,35.27
2023-03-28T20:36:11.499Z,35.38
2023-03-28T20:38:38.563Z,35.65
2023-03-28T20:41:16.088Z,35.84
2023-03-28T20:43:46.961Z,36.12
2023-03-28T20:46:18.996Z,35.97
2023-03-28T20:48:47.004Z,36.22
2023-03-28T20:51:15.890Z,36.09
2023-03-28T20:53:44.385Z,36.15
2023-03-28T20:56:12.059Z,36.35
2023-03-28T20:58:39.212Z,36.07
2023-03-28T21:01:07.244Z,36.01
2023-03-28T21:03:46.507Z,36.49
2023-03-28T21:06:15.660Z,36.04
2023-03-28T21:08:45.695Z,35.86
2023-03-28T21:11:16.390Z,36.28
2023-03-28T21:13:42.955Z,36.05
2023-03-28T21:16:10.449Z,36.76
2023-03-28T21:18:40.160Z,36.49
2023-03-28T21:21:10.920Z,36.58
2023-03-28T21:23:38.946Z,36.22
2023-03-28T21:26:09.562Z,36.96
2023-03-28T21:28:36.571Z,37.32
2023-03-28T21:31:09.005Z,37.04
2023-03-28T21:33:36.723Z,37.31
2023-03-28T21:36:05.050Z,37.51
2023-03-28T21:38:31.558Z,38.20
2023-03-28T21:40:58.088Z,37.82
2023-03-28T21:43:24.665Z,37.60
2023-03-28T21:45:51.211Z,37.02
2023-03-28T21:48:17.787Z,36.58
2023-03-28T21:50:53.237Z,36.59
2023-03-28T21:53:20.759Z,36.44
2023-03-28T21:55:47.427Z,36.37
2023-03-28T21:58:13.971Z,36.21
2023-03-28T22:00:40.767Z,36.40
2023-03-28T22:03:07.652Z,36.71
2023-03-28T22:05:40.112Z,36.82
2023-03-28T22:08:08.862Z,36.90
2023-03-28T22:10:37.485Z,36.65
2023-03-28T22:13:06.677Z,37.06
2023-03-28T22:15:33.262Z,36.73
2023-03-28T22:17:59.838Z,36.98
2023-03-28T22:20:27.875Z,37.20
2023-03-28T22:22:55.039Z,37.00
2023-03-28T22:25:22.621Z,37.48
2023-03-28T22:27:49.275Z,37.63
2023-03-28T22:30:15.860Z,37.59
2023-03-28T22:32:42.564Z,38.07
2023-03-28T22:35:11.101Z,38.37
2023-03-28T22:37:38.137Z,37.77
2023-03-28T22:40:08.346Z,38.07
2023-03-28T22:42:34.839Z,37.81
2023-03-28T22:45:01.775Z,38.63
2023-03-28T22:47:30.252Z,38.21
2023-03-28T22:49:58.164Z,38.14
2023-03-28T22:52:26.187Z,37.96
2023-03-28T22:54:52.993Z,37.69
2023-03-28T22:57:19.660Z,37.74
2023-03-28T22:59:46.667Z,38.07
2023-03-28T23:02:13.270Z,37.56
2023-03-28T23:04:40.177Z,38.27
2023-03-28T23:07:06.988Z,37.82
2023-03-28T23:09:33.466Z,38.16
2023-03-28T23:11:59.999Z,38.58
2023-03-28T23:14:27.313Z,38.33
2023-03-28T23:16:54.097Z,38.84
2023-03-28T23:19:20.608Z,38.98
2023-03-28T23:21:48.377Z,39.09
2023-03-28T23:24:15.046Z,39.56
2023-03-28T23:26:41.545Z,39.32
2023-03-28T23:29:08.062Z,39.32
2023-03-28T23:31:34.603Z,39.17
2023-03-28T23:34:01.115Z,38.81
2023-03-28T23:36:30.184Z,39.43
2023-03-28T23:38:57.544Z,39.18
2023-03-28T23:41:24.022Z,39.90
2023-03-28T23:43:50.679Z,40.16
2023-03-28T23:46:17.256Z,39.80
2023-03-28T23:48:43.807Z,39.92
2023-03-28T23:51:10.452Z,40.52
2023-03-28T23:53:36.949Z,39.87
2023-03-28T23:56:03.817Z,40.05
2023-03-28T23:58:30.352Z,40.18
